createdAt,value
2023-04-28T00:02:03.182Z,5.83
2023-04-28T00:04:29.879Z,4.57
2023-04-28T00:06:56.709Z,6.53
2023-04-28T00:09:24.033Z,5.93
2023-04-28T00:11:50.629Z,5.30
2023-04-28T00:14:17.481Z,6.30
2023-04-28T00:16:44.368Z,5.87
2023-04-28T00:19:10.978Z,6.07
2023-04-28T00:21:37.596Z,6.13
2023-04-28T00:24:04.287Z,7.60
2023-04-28T00:26:32.030Z,6.30
2023-04-28T00:28:59.627Z,5.77
2023-04-28T00:31:26.543Z,5.50
2023-04-28T00:33:53.406Z,6.57
2023-04-28T00:41:40.350Z,7.43
2023-04-28T00:46:42.460Z,4.77
2023-04-28T00:49:11.002Z,5.13
2023-04-28T00:52:30.295Z,4.57
2023-04-28T00:58:34.210Z,5.17
2023-04-28T01:01:09.034Z,6.37
2023-04-28T01:03:38.010Z,7.67
2023-04-28T01:06:06.128Z,7.50
2023-04-28T01:08:34.410Z,5.33
2023-04-28T01:11:01.955Z,4.43
2023-04-28T01:16:00.905Z,6.03
2023-04-28T01:23:31.204Z,4.97
2023-04-28T01:33:32.805Z,4.90
2023-04-28T01:38:30.993Z,5.00
2023-04-28T01:40:58.522Z,5.63
2023-04-28T01:43:25.206Z,5.07
2023-04-28T01:45:51.823Z,4.67
2023-04-28T01:48:18.400Z,4.53
2023-04-28T01:50:44.963Z,5.10
2023-04-28T01:53:11.582Z,5.93
2023-04-28T01:55:38.623Z,5.43
2023-04-28T01:58:05.217Z,4.07
2023-04-28T02:00:31.908Z,5.83
2023-04-28T02:02:58.600Z,5.97
2023-04-28T02:05:25.884Z,5.00
2023-04-28T02:07:52.389Z,7.10
2023-04-28T02:10:19.044Z,4.50
2023-04-28T02:17:48.794Z,4.93
2023-04-28T02:20:15.497Z,5.83
2023-04-28T02:25:13.593Z,4.90
2023-04-28T02:27:40.214Z,4.97
2023-04-28T02:30:07.399Z,4.27
2023-04-28T02:37:37.294Z,4.73
2023-04-28T02:40:04.072Z,5.90
2023-04-28T02:50:06.493Z,5.30
2023-04-28T02:57:36.490Z,3.33
2023-04-28T03:00:03.381Z,4.63
2023-04-28T03:02:29.967Z,5.07
2023-04-28T03:04:56.745Z,4.17
2023-04-28T03:07:23.416Z,4.33
2023-04-28T03:09:50.024Z,4.20
2023-04-28T03:12:16.544Z,4.23
2023-04-28T03:17:14.539Z,4.23
2023-04-28T03:19:41.271Z,5.33
2023-04-28T03:22:07.858Z,4.60
2023-04-28T03:24:35.009Z,4.37
2023-04-28T03:42:12.599Z,4.10
2023-04-28T03:47:05.893Z,4.37
2023-04-28T03:49:32.519Z,4.23
2023-04-28T03:51:59.069Z,5.10
2023-04-28T03:54:25.682Z,4.80
2023-04-28T03:56:52.241Z,3.77
2023-04-28T03:59:18.844Z,4.40
2023-04-28T04:01:45.364Z,3.93
2023-04-28T04:04:12.293Z,2.73
2023-04-28T04:06:38.982Z,4.13
2023-04-28T04:14:08.946Z,4.10
2023-04-28T04:16:36.343Z,3.13
2023-04-28T04:19:03.063Z,3.53
2023-04-28T04:21:29.813Z,3.13
2023-04-28T04:23:56.374Z,5.30
2023-04-28T04:26:23.093Z,4.33
2023-04-28T04:28:49.628Z,2.87
2023-04-28T04:31:16.204Z,3.10
2023-04-28T04:33:42.814Z,4.17
2023-04-28T04:36:09.439Z,3.20
2023-04-28T04:38:36.123Z,3.27
2023-04-28T04:41:02.681Z,3.87
2023-04-28T04:43:29.255Z,3.77
2023-04-28T04:50:58.983Z,3.27
2023-04-28T04:55:57.208Z,3.00
2023-04-28T05:00:55.411Z,2.57
2023-04-28T05:05:53.470Z,2.70
2023-04-28T05:08:20.211Z,3.27
2023-04-28T05:10:46.814Z,2.90
2023-04-28T05:13:13.524Z,3.47
2023-04-28T05:15:40.097Z,3.17
2023-04-28T05:18:10.930Z,2.83
2023-04-28T05:20:37.803Z,2.87
2023-04-28T05:23:04.432Z,2.80
2023-04-28T05:25:31.085Z,2.80
2023-04-28T05:27:57.709Z,2.83
2023-04-28T05:30:24.307Z,3.10
2023-04-28T05:35:22.568Z,3.87
2023-04-28T05:37:49.149Z,3.40
2023-04-28T05:40:16.094Z,3.60
2023-04-28T05:47:46.506Z,3.70
2023-04-28T05:50:13.075Z,2.90
2023-04-28T05:52:39.567Z,2.83
2023-04-28T05:55:06.528Z,5.83
2023-04-28T05:57:41.765Z,3.47
2023-04-28T06:02:48.608Z,3.00
2023-04-28T06:05:15.623Z,3.00
2023-04-28T06:07:42.267Z,2.70
2023-04-28T06:10:09.510Z,3.47
2023-04-28T06:15:08.383Z,4.63
2023-04-28T06:30:23.332Z,3.27
2023-04-28T06:32:50.029Z,4.13
2023-04-28T06:35:16.933Z,3.43
2023-04-28T06:40:15.327Z,3.43
2023-04-28T06:42:41.939Z,4.23
2023-04-28T06:50:12.484Z,4.10
2023-04-28T06:52:39.983Z,2.60
2023-04-28T06:55:10.002Z,2.63
2023-04-28T06:57:38.054Z,3.97
2023-04-28T07:00:05.305Z,4.13
2023-04-28T07:02:31.962Z,3.57
2023-04-28T07:12:33.725Z,5.03
2023-04-28T07:20:04.611Z,4.73
2023-04-28T07:25:04.702Z,4.97
2023-04-28T07:35:06.550Z,4.87
2023-04-28T07:42:37.378Z,3.40
2023-04-28T07:45:05.497Z,4.27
2023-04-28T07:47:32.136Z,5.27
2023-04-28T07:50:00.625Z,4.10
2023-04-28T08:02:35.528Z,3.77
2023-04-28T08:12:37.590Z,4.53
2023-04-28T08:15:04.819Z,3.97
2023-04-28T08:20:03.099Z,5.10
2023-04-28T08:22:29.682Z,6.87
2023-04-28T08:24:56.281Z,4.70
2023-04-28T08:27:23.785Z,2.93
2023-04-28T08:29:50.380Z,4.50
2023-04-28T08:32:16.972Z,3.67
2023-04-28T08:34:43.562Z,2.90
2023-04-28T08:37:10.889Z,5.10
2023-04-28T08:39:37.520Z,4.87
2023-04-28T08:42:04.777Z,3.83
2023-04-28T08:44:39.382Z,3.63
2023-04-28T08:50:14.001Z,3.47
2023-04-28T09:00:09.848Z,3.67
2023-04-28T09:07:45.984Z,4.43
2023-04-28T09:12:55.831Z,4.97
2023-04-28T09:15:25.836Z,4.13
2023-04-28T09:17:52.982Z,4.20
2023-04-28T09:20:24.118Z,2.70
2023-04-28T09:22:51.990Z,3.17
2023-04-28T09:25:21.169Z,2.67
2023-04-28T09:27:48.062Z,3.10
2023-04-28T09:30:14.851Z,3.67
2023-04-28T09:32:41.686Z,3.43
2023-04-28T09:42:46.324Z,3.53
2023-04-28T09:45:14.436Z,2.70
2023-04-28T09:52:58.998Z,4.20
2023-04-28T09:58:05.981Z,3.37
2023-04-28T10:03:07.669Z,4.50
2023-04-28T10:05:35.933Z,3.30
2023-04-28T10:08:03.631Z,2.60
2023-04-28T10:10:30.269Z,3.47
2023-04-28T10:15:28.709Z,4.10
2023-04-28T10:17:55.904Z,3.57
2023-04-28T10:20:23.017Z,3.87
2023-04-28T10:28:23.688Z,3.33
2023-04-28T10:33:41.973Z,3.47
2023-04-28T10:39:09.564Z,2.90
2023-04-28T10:41:36.755Z,2.67
2023-04-28T10:44:43.653Z,3.33
2023-04-28T10:52:38.635Z,3.83
2023-04-28T10:58:20.305Z,1.90
2023-04-28T11:03:46.722Z,2.13
2023-04-28T11:06:26.624Z,2.47
2023-04-28T11:08:55.676Z,2.63
2023-04-28T11:11:25.867Z,3.37
2023-04-28T11:13:54.452Z,2.33
2023-04-28T11:16:25.755Z,3.43
2023-04-28T11:19:05.447Z,3.47
2023-04-28T11:21:32.900Z,3.73
2023-04-28T11:23:59.727Z,2.50
2023-04-28T11:26:27.876Z,2.43
2023-04-28T11:28:56.969Z,3.33
2023-04-28T11:34:05.021Z,1.93
2023-04-28T11:41:43.717Z,3.83
2023-04-28T11:46:56.014Z,2.77
2023-04-28T11:49:30.147Z,3.93
2023-04-28T11:52:00.027Z,2.93
2023-04-28T11:54:28.993Z,4.37
2023-04-28T11:56:57.417Z,2.40
2023-04-28T11:59:42.875Z,4.47
2023-04-28T12:07:14.928Z,3.20
2023-04-28T12:15:08.155Z,4.97
2023-04-28T12:17:39.664Z,4.23
2023-04-28T12:22:58.660Z,2.57
2023-04-28T12:25:25.333Z,2.03
2023-04-28T12:28:03.044Z,3.00
2023-04-28T12:30:33.233Z,2.47
2023-04-28T12:32:59.970Z,2.10
2023-04-28T12:35:28.351Z,2.73
2023-04-28T12:37:57.539Z,2.60
2023-04-28T12:40:24.686Z,2.40
2023-04-28T12:42:51.459Z,3.60
2023-04-28T12:45:18.235Z,2.53
2023-04-28T12:47:44.992Z,3.27
2023-04-28T12:50:11.881Z,2.50
2023-04-28T12:52:38.482Z,2.70
2023-04-28T12:55:05.681Z,1.97
2023-04-28T13:02:36.129Z,1.93
2023-04-28T13:05:03.180Z,2.53
2023-04-28T13:10:01.721Z,3.13
2023-04-28T13:12:28.255Z,2.00
2023-04-28T13:14:54.789Z,2.70
2023-04-28T13:17:21.431Z,3.63
2023-04-28T13:19:48.215Z,2.73
2023-04-28T13:22:15.729Z,2.00
2023-04-28T13:24:42.295Z,3.10
2023-04-28T13:27:09.933Z,2.27
2023-04-28T13:34:40.386Z,2.20
2023-04-28T13:37:07.039Z,2.47
2023-04-28T13:42:06.571Z,3.27
2023-04-28T13:44:33.215Z,2.17
2023-04-28T13:46:59.951Z,2.27
2023-04-28T13:49:26.578Z,2.27
2023-04-28T13:51:53.160Z,3.43
2023-04-28T13:54:20.094Z,3.37
2023-04-28T13:56:46.803Z,3.03
2023-04-28T13:59:13.466Z,1.87
2023-04-28T14:01:40.086Z,1.73
2023-04-28T14:04:07.109Z,3.43
2023-04-28T14:06:34.957Z,1.83
2023-04-28T14:09:02.783Z,1.70
2023-04-28T14:14:01.262Z,2.23
2023-04-28T14:16:28.840Z,2.33
2023-04-28T14:18:55.646Z,2.33
2023-04-28T14:21:22.162Z,2.43
2023-04-28T14:23:48.980Z,1.80
2023-04-28T14:26:15.526Z,1.93
2023-04-28T14:28:42.149Z,1.73
2023-04-28T14:31:09.179Z,3.20
2023-04-28T14:33:36.706Z,1.57
2023-04-28T14:38:36.224Z,3.07
2023-04-28T14:48:38.245Z,1.40
2023-04-28T14:58:43.800Z,2.33
2023-04-28T15:01:10.334Z,1.70
2023-04-28T15:03:37.520Z,3.03
2023-04-28T15:06:05.505Z,1.73
2023-04-28T15:11:06.555Z,2.13
2023-04-28T15:18:37.444Z,2.23
2023-04-28T15:26:08.057Z,1.43
2023-04-28T15:31:06.632Z,1.70
2023-04-28T15:33:33.945Z,1.37
2023-04-28T15:38:32.619Z,1.67
2023-04-28T15:43:30.771Z,2.30
2023-04-28T15:51:01.434Z,1.93
2023-04-28T15:53:27.977Z,1.40
2023-04-28T15:55:54.604Z,1.83
2023-04-28T15:58:21.134Z,2.10
2023-04-28T16:00:48.349Z,1.90
2023-04-28T16:05:46.893Z,1.97
2023-04-28T16:08:14.168Z,2.03
2023-04-28T16:10:42.259Z,2.47
2023-04-28T16:13:11.269Z,1.43
2023-04-28T16:15:38.238Z,1.80
2023-04-28T16:18:05.125Z,3.93
2023-04-28T16:20:33.508Z,1.83
2023-04-28T16:23:00.064Z,1.43
2023-04-28T16:25:26.730Z,1.93
2023-04-28T16:27:53.555Z,3.90
2023-04-28T16:30:20.414Z,1.63
2023-04-28T16:32:47.025Z,2.10
2023-04-28T16:35:15.164Z,1.63
2023-04-28T16:37:43.123Z,2.63
2023-04-28T16:45:15.396Z,2.07
2023-04-28T16:47:43.242Z,2.07
2023-04-28T16:50:11.419Z,1.53
2023-04-28T16:52:38.200Z,3.73
2023-04-28T17:00:09.932Z,1.90
2023-04-28T17:02:36.551Z,2.73
2023-04-28T17:10:07.086Z,2.37
2023-04-28T17:15:06.863Z,2.20
2023-04-28T17:20:05.353Z,1.77
2023-04-28T17:22:31.865Z,1.67
2023-04-28T17:24:58.393Z,1.60
2023-04-28T17:29:56.584Z,1.97
2023-04-28T17:37:26.300Z,1.53
2023-04-28T17:44:56.209Z,3.83
2023-04-28T17:54:57.684Z,3.47
2023-04-28T17:59:55.794Z,1.50
2023-04-28T18:12:30.209Z,1.60
2023-04-28T18:14:57.891Z,1.63
2023-04-28T18:17:25.957Z,2.87
2023-04-28T18:19:55.210Z,1.50
2023-04-28T18:22:21.889Z,2.40
2023-04-28T18:24:48.938Z,1.70
2023-04-28T18:27:16.157Z,1.43
2023-04-28T18:29:42.690Z,2.23
2023-04-28T18:32:10.811Z,1.43
2023-04-28T18:34:38.634Z,1.77
2023-04-28T18:37:06.464Z,2.07
2023-04-28T18:39:33.052Z,1.87
2023-04-28T18:42:00.231Z,1.60
2023-04-28T18:44:26.897Z,1.77
2023-04-28T18:46:53.520Z,2.70
2023-04-28T18:49:20.284Z,3.67
2023-04-28T18:51:46.881Z,2.30
2023-04-28T18:54:16.813Z,1.57
2023-04-28T19:01:48.110Z,1.30
2023-04-28T19:06:46.118Z,1.77
2023-04-28T19:09:12.644Z,2.23
2023-04-28T19:16:42.287Z,3.00
2023-04-28T19:29:19.882Z,1.57
2023-04-28T19:31:46.543Z,2.60
2023-04-28T19:36:44.678Z,2.27
2023-04-28T19:41:42.743Z,2.30
2023-04-28T19:44:09.345Z,2.30
2023-04-28T19:46:36.929Z,2.50
2023-04-28T19:49:03.586Z,1.87
2023-04-28T19:51:30.263Z,2.20
2023-04-28T19:53:57.482Z,1.63
2023-04-28T19:56:24.665Z,2.37
2023-04-28T19:58:51.308Z,2.10
2023-04-28T20:01:17.970Z,3.17
2023-04-28T20:03:44.669Z,1.57
2023-04-28T20:06:17.264Z,1.60
2023-04-28T20:08:44.729Z,1.43
2023-04-28T20:11:11.731Z,1.40
2023-04-28T20:13:38.300Z,3.73
2023-04-28T20:16:05.596Z,2.80
2023-04-28T20:18:32.159Z,1.57
2023-04-28T20:20:58.673Z,1.83
2023-04-28T20:30:59.756Z,1.80
2023-04-28T20:38:29.840Z,2.33
2023-04-28T20:40:59.284Z,1.20
2023-04-28T20:43:29.050Z,3.53
2023-04-28T20:45:55.675Z,2.37
2023-04-28T20:48:22.276Z,1.70
2023-04-28T20:50:52.796Z,2.40
2023-04-28T20:53:19.342Z,2.40
2023-04-28T20:55:46.012Z,1.87
2023-04-28T20:58:13.601Z,1.73
2023-04-28T21:00:41.000Z,2.60
2023-04-28T21:03:07.930Z,2.53
2023-04-28T21:05:34.678Z,2.10
2023-04-28T21:08:01.201Z,1.30
2023-04-28T21:10:27.803Z,2.83
2023-04-28T21:12:54.342Z,1.73
2023-04-28T21:15:20.956Z,1.43
2023-04-28T21:17:47.670Z,1.57
2023-04-28T21:20:14.791Z,2.93
2023-04-28T21:27:44.855Z,1.70
2023-04-28T21:30:12.913Z,2.50
2023-04-28T21:32:39.703Z,2.07
2023-04-28T21:35:06.781Z,1.33
2023-04-28T21:40:05.341Z,2.10
2023-04-28T21:42:31.955Z,1.63
2023-04-28T21:52:33.582Z,1.67
2023-04-28T22:00:03.842Z,1.23
2023-04-28T22:05:02.103Z,2.13
2023-04-28T22:15:04.916Z,1.60
2023-04-28T22:17:32.067Z,1.90
2023-04-28T22:19:58.630Z,2.03
2023-04-28T22:22:25.218Z,1.63
2023-04-28T22:27:23.782Z,2.97
2023-04-28T22:37:26.178Z,1.50
2023-04-28T22:39:52.900Z,1.40
2023-04-28T22:54:58.172Z,1.40
2023-04-28T22:57:24.786Z,2.80
2023-04-28T23:02:23.428Z,1.60
2023-04-28T23:07:22.218Z,1.33
2023-04-28T23:09:48.929Z,2.53
2023-04-28T23:17:19.182Z,3.23
2023-04-28T23:24:48.927Z,1.33
2023-04-28T23:27:15.598Z,1.30
2023-04-28T23:29:42.137Z,1.40
2023-04-28T23:32:09.167Z,1.70
2023-04-28T23:34:38.072Z,1.10
2023-04-28T23:37:04.945Z,1.77
2023-04-28T23:42:03.612Z,1.30
2023-04-28T23:47:01.732Z,2.00
2023-04-28T23:51:59.685Z,1.27
2023-04-28T23:56:58.064Z,1.70
